Welcome to our new website - Welkom op onze vernieuwde website - Bienvenue sur notre nouveau site web - Willkommen auf unserer neuen Website
Check our progress frequently. Prüfen Sie unsere Fortschritte regelmäßig. Consultez notre progression fréquemment. Komt u straks nog eens terug


Hej. Vi har købt ny vejrstation, og er ved at bygge en helt ny vejrside.
Kom snart tilbage og følg udviklingen.
Du kan også komme med kommentarer eller evt. ønsker via "Kontakt" i bunden.



Webcam more information Webcam


Rain radar more information rain snow radar


Visit our other weather sites:

Template documentation
and downloads

And another site



Nearby METAR Reports

   
EBBR - Brussels International Airport, Belgium
Distance from station: W 14 km
Updated: 17-01-2019 10:20
Showers, Rain, Mostly Cloudy  
Showers, Rain, Mostly Cloudy  
   Wind: West 25.9 km/h
Wind: West 25.9 km/h
Temperature: 5°C
Wind Chill: 1°C
Dew Point: 3°C
Humidity: 87%
Barometer: 1003 hPa
Clouds: Mostly Cloudy
Visibility: 7 km
Cloud details: Partly Cloudy 1200 ft,
Mostly Cloudy 1400 ft
EBBR 170920Z 26014KT 7000 SHRA SCT012TCU BKN014 05/03 Q1003 TEMPO 25015G25KT 4000 SHRAGS BKN012CB
EBBE - Beauvechain (Bevekom), Belgium
Distance from station: SSE 17 km
Updated: 17-01-2019 10:25
Mostly Cloudy  
Mostly Cloudy  
   Wind: WSW 22.2 km/h
Wind: WSW 22.2 km/h
Temperature: 4°C
Wind Chill: -1°C
Dew Point: 3°C
Humidity: 93%
Barometer: 1003 hPa
Clouds: Mostly Cloudy
Visibility: 9 km
Cloud details: Few Clouds 900 ft,
Mostly Cloudy 1100 ft,
Mostly Cloudy 1400 ft
EBBE 170925Z 25012KT 9000 FEW009 BKN011 BKN014 04/03 Q1003 GRN WHT TEMPO GRN
EBDT - Schaffen, Belgium
Distance from station: ENE 29 km
Updated: 17-01-2019 10:25
Mostly Cloudy  
Mostly Cloudy  
   Wind: WSW 16.7 km/h
Wind: WSW 16.7 km/h
Temperature: 5°C
Wind Chill: 2°C
Dew Point: 4°C
Humidity: 93%
Barometer: 1002 hPa
Clouds: Mostly Cloudy
Visibility: More than 10 km
Cloud details: Few Clouds 900 ft,
Mostly Cloudy 1200 ft,
Mostly Cloudy 2000 ft
EBDT 170925Z 24009KT 9999 FEW009 BKN012 BKN020 05/04 Q1002 GRN GRN
EBAW - Antwerp/Deurne, Belgium
Distance from station: NNW 38 km
Updated: 17-01-2019 10:20
Light Rain, Drizzle, Mostly Cloudy  
Light Rain, Drizzle, Mostly Cloudy  
   Wind: West 22.2 km/h
Wind: West 22.2 km/h
Temperature: 5°C
Wind Chill: 1°C
Dew Point: 3°C
Humidity: 87%
Barometer: 1003 hPa
Clouds: Mostly Cloudy
Visibility: 5 km
Cloud details: Partly Cloudy 800 ft,
Mostly Cloudy 1000 ft
EBAW 170920Z 27012KT 240V300 5000 -RADZ SCT008 BKN010 05/03 Q1003 TEMPO 2500 SHRAGS BKN008CB
EBCI - Charleroi/Gosselies, Belgium
Distance from station: SSW 51 km
Updated: 17-01-2019 10:20
Light Rain, Mostly Cloudy  
Light Rain, Mostly Cloudy  
   Wind: WSW 29.6 km/h
Wind: WSW 29.6 km/h
Temperature: 4°C
Wind Chill: -1°C
Dew Point: 2°C
Humidity: 87%
Barometer: 1004 hPa
Clouds: Mostly Cloudy
Visibility: More than 10 km
Cloud details: Mostly Cloudy 800 ft,
Mostly Cloudy 1300 ft
EBCI 170920Z 24016KT 9999 -RA BKN008 BKN013 04/02 Q1004 NOSIG
EBLG - Bierset/Liege, Belgium
Distance from station: ESE 60 km
Updated: 17-01-2019 10:20
Light Rain, Mostly Cloudy  
Light Rain, Mostly Cloudy  
   Wind: SW 35.2 km/h
Wind: SW 35.2 km/h
Temperature: 4°C
Wind Chill: -2°C
Dew Point: 3°C
Humidity: 93%
Barometer: 1002 hPa
Clouds: Mostly Cloudy
Visibility: 9 km
Cloud details: Partly Cloudy 800 ft,
Mostly Cloudy 1200 ft
EBLG 170920Z 23019KT 9000 -RA SCT008 BKN012 04/03 Q1002 TEMPO 3500 SHRA

Script developed by  Saratoga-weather.org Adapted for the template by  Weerstation Leuven

You find our weather info also at:

European Weather Network

Weather Underground

European Weather Network

Equipment we use:

Weather-station
Davis VP2

Weather-program
Weather Display

Davis VP2

Weather Display



Hej. Vi har købt ny vejrstation, og er ved at bygge en helt ny vejrside.
Kom snart tilbage og følg udviklingen.
Du kan også komme med kommentarer eller evt. ønsker via "Kontakt" i bunden.